createdAt,value
2022-08-21T00:00:17.450Z,5.45
2022-08-21T00:02:59.772Z,5.45
2022-08-21T00:05:27.093Z,5.28
2022-08-21T00:07:53.747Z,5.15
2022-08-21T00:10:20.602Z,5.78
2022-08-21T00:12:47.439Z,5.30
2022-08-21T00:15:17.967Z,5.60
2022-08-21T00:17:44.741Z,5.78
2022-08-21T00:20:13.428Z,5.72
2022-08-21T00:22:40.135Z,5.65
2022-08-21T00:25:07.732Z,6.22
2022-08-21T00:27:34.715Z,5.40
2022-08-21T00:30:01.416Z,5.75
2022-08-21T00:32:29.755Z,5.85
2022-08-21T00:34:56.429Z,5.45
2022-08-21T00:37:23.054Z,6.10
2022-08-21T00:39:50.173Z,5.82
2022-08-21T00:42:17.296Z,6.80
2022-08-21T00:44:45.111Z,5.93
2022-08-21T00:47:12.279Z,6.82
2022-08-21T00:49:39.915Z,5.95
2022-08-21T00:52:10.638Z,6.72
2022-08-21T00:54:37.937Z,6.25
2022-08-21T00:57:15.156Z,6.30
2022-08-21T00:59:45.682Z,6.47
2022-08-21T01:02:13.201Z,5.63
2022-08-21T01:04:39.808Z,6.97
2022-08-21T01:07:06.559Z,6.28
2022-08-21T01:09:33.405Z,6.13
2022-08-21T01:12:00.602Z,6.70
2022-08-21T01:14:27.328Z,6.05
2022-08-21T01:16:55.184Z,5.35
2022-08-21T01:19:22.446Z,6.40
2022-08-21T01:21:49.642Z,6.00
2022-08-21T01:24:16.227Z,6.38
2022-08-21T01:26:43.920Z,5.65
2022-08-21T01:29:27.869Z,6.25
2022-08-21T01:31:54.499Z,5.05
2022-08-21T01:34:21.010Z,5.22
2022-08-21T01:36:48.321Z,4.50
2022-08-21T01:39:16.000Z,4.97
2022-08-21T01:41:42.761Z,4.82
2022-08-21T01:44:09.394Z,4.30
2022-08-21T01:46:36.272Z,4.18
2022-08-21T01:49:03.801Z,3.70
2022-08-21T01:51:30.413Z,3.83
2022-08-21T01:53:56.937Z,3.58
2022-08-21T01:56:23.674Z,3.58
2022-08-21T01:58:50.458Z,3.60
2022-08-21T02:01:17.187Z,2.85
2022-08-21T02:03:43.893Z,2.90
2022-08-21T02:06:15.888Z,3.20
2022-08-21T02:08:42.432Z,3.00
2022-08-21T02:11:08.970Z,3.85
2022-08-21T02:13:35.671Z,3.00
2022-08-21T02:16:02.348Z,3.65
2022-08-21T02:18:29.018Z,4.70
2022-08-21T02:20:56.011Z,3.58
2022-08-21T02:23:26.839Z,3.05
2022-08-21T02:25:53.842Z,3.85
2022-08-21T02:28:20.464Z,3.72
2022-08-21T02:30:48.684Z,3.47
2022-08-21T02:33:16.004Z,3.38
2022-08-21T02:35:43.646Z,3.20
2022-08-21T02:38:14.896Z,3.42
2022-08-21T02:40:47.648Z,3.13
2022-08-21T02:43:16.381Z,3.10
2022-08-21T02:45:44.036Z,2.40
2022-08-21T02:48:15.038Z,3.05
2022-08-21T02:50:49.972Z,2.40
2022-08-21T02:53:17.780Z,2.42
2022-08-21T02:55:49.342Z,2.65
2022-08-21T02:58:18.795Z,2.67
2022-08-21T03:00:45.917Z,2.08
2022-08-21T03:03:15.746Z,3.38
2022-08-21T03:05:43.766Z,2.78
2022-08-21T03:08:12.282Z,2.45
2022-08-21T03:10:41.006Z,2.30
2022-08-21T03:13:08.089Z,2.20
2022-08-21T03:15:35.596Z,2.20
2022-08-21T03:18:02.681Z,2.10
2022-08-21T03:20:29.638Z,2.10
2022-08-21T03:22:56.427Z,1.90
2022-08-21T03:25:33.751Z,2.20
2022-08-21T03:28:13.282Z,2.45
2022-08-21T03:30:42.283Z,2.53
2022-08-21T03:33:09.176Z,1.77
2022-08-21T03:35:39.936Z,2.00
2022-08-21T03:38:06.637Z,2.17
2022-08-21T03:40:33.210Z,2.30
2022-08-21T03:43:00.010Z,2.22
2022-08-21T03:45:26.995Z,2.08
2022-08-21T03:48:02.216Z,2.50
2022-08-21T03:50:34.860Z,1.85
2022-08-21T03:53:02.875Z,2.47
2022-08-21T03:55:29.706Z,1.83
2022-08-21T03:57:56.806Z,2.00
2022-08-21T04:00:24.406Z,2.00
2022-08-21T04:02:51.561Z,2.20
2022-08-21T04:05:28.334Z,1.75
2022-08-21T04:07:56.766Z,1.77
2022-08-21T04:10:25.270Z,1.90
2022-08-21T04:12:53.190Z,1.33
2022-08-21T04:15:21.124Z,1.75
2022-08-21T04:17:47.822Z,2.63
2022-08-21T04:20:14.454Z,1.70
2022-08-21T04:22:41.056Z,2.00
2022-08-21T04:25:08.460Z,2.28
2022-08-21T04:27:35.940Z,1.85
2022-08-21T04:30:03.220Z,1.77
2022-08-21T04:32:29.757Z,2.40
2022-08-21T04:35:07.707Z,2.15
2022-08-21T04:37:34.487Z,2.33
2022-08-21T04:40:10.620Z,1.80
2022-08-21T04:42:46.540Z,1.92
2022-08-21T04:45:23.130Z,1.92
2022-08-21T04:47:55.687Z,1.92
2022-08-21T04:50:25.505Z,1.98
2022-08-21T04:52:52.203Z,2.00
2022-08-21T04:55:19.211Z,1.90
2022-08-21T04:57:49.265Z,1.45
2022-08-21T05:00:19.725Z,1.75
2022-08-21T05:02:48.857Z,2.20
2022-08-21T05:05:17.058Z,2.83
2022-08-21T05:07:44.807Z,2.10
2022-08-21T05:10:12.534Z,1.85
2022-08-21T05:12:42.871Z,1.92
2022-08-21T05:15:13.537Z,2.35
2022-08-21T05:17:41.383Z,2.03
2022-08-21T05:20:09.279Z,1.73
2022-08-21T05:22:35.880Z,2.05
2022-08-21T05:25:02.420Z,1.77
2022-08-21T05:27:31.728Z,2.10
2022-08-21T05:29:59.074Z,2.00
2022-08-21T05:32:25.734Z,2.58
2022-08-21T05:34:52.315Z,2.90
2022-08-21T05:37:18.861Z,2.85
2022-08-21T05:40:04.714Z,2.60
2022-08-21T05:42:32.003Z,2.40
2022-08-21T05:44:58.564Z,2.08
2022-08-21T05:47:26.381Z,2.65
2022-08-21T05:49:52.998Z,2.70
2022-08-21T05:52:21.140Z,2.40
2022-08-21T05:54:47.654Z,2.97
2022-08-21T05:57:14.263Z,2.85
2022-08-21T05:59:40.763Z,2.35
2022-08-21T06:02:09.157Z,2.53
2022-08-21T06:04:39.633Z,2.45
2022-08-21T06:07:06.573Z,2.45
2022-08-21T06:09:34.234Z,2.15
2022-08-21T06:12:05.882Z,2.83
2022-08-21T06:14:32.414Z,1.90
2022-08-21T06:17:06.720Z,2.30
2022-08-21T06:19:33.462Z,2.47
2022-08-21T06:22:00.349Z,1.67
2022-08-21T06:24:27.325Z,2.33
2022-08-21T06:26:54.779Z,1.70
2022-08-21T06:29:22.142Z,2.20
2022-08-21T06:31:50.019Z,2.28
2022-08-21T06:34:16.632Z,2.47
2022-08-21T06:36:43.486Z,1.48
2022-08-21T06:39:24.881Z,2.13
2022-08-21T06:41:56.896Z,1.80
2022-08-21T06:44:23.477Z,1.92
2022-08-21T06:46:50.083Z,2.72
2022-08-21T06:49:21.267Z,1.48
2022-08-21T06:51:48.377Z,2.08
2022-08-21T06:54:15.052Z,2.08
2022-08-21T06:56:41.767Z,1.65
2022-08-21T06:59:08.506Z,1.85
2022-08-21T07:01:35.107Z,1.92
2022-08-21T07:04:01.682Z,1.75
2022-08-21T07:06:28.252Z,1.55
2022-08-21T07:08:59.015Z,1.60
2022-08-21T07:11:26.353Z,2.28
2022-08-21T07:13:55.172Z,1.75
2022-08-21T07:16:22.487Z,2.00
2022-08-21T07:18:50.393Z,1.75
2022-08-21T07:21:17.551Z,1.77
2022-08-21T07:23:48.410Z,1.70
2022-08-21T07:26:17.026Z,1.45
2022-08-21T07:28:43.646Z,1.75
2022-08-21T07:31:14.649Z,1.70
2022-08-21T07:33:42.352Z,1.63
2022-08-21T07:36:09.614Z,2.15
2022-08-21T07:38:36.406Z,1.42
2022-08-21T07:41:04.239Z,1.65
2022-08-21T07:43:30.920Z,1.10
2022-08-21T07:45:58.425Z,1.35
2022-08-21T07:48:25.046Z,1.45
2022-08-21T07:50:52.236Z,1.15
2022-08-21T07:53:18.806Z,1.23
2022-08-21T07:55:45.720Z,1.63
2022-08-21T07:58:12.273Z,1.20
2022-08-21T08:00:38.894Z,1.10
2022-08-21T08:03:05.732Z,1.42
2022-08-21T08:05:33.533Z,1.60
2022-08-21T08:08:00.352Z,1.52
2022-08-21T08:10:27.536Z,1.20
2022-08-21T08:12:56.514Z,0.90
2022-08-21T08:15:26.268Z,1.70
2022-08-21T08:17:53.358Z,1.38
2022-08-21T08:20:21.191Z,1.40
2022-08-21T08:22:53.783Z,1.48
2022-08-21T08:25:21.607Z,1.48
2022-08-21T08:27:48.212Z,1.13
2022-08-21T08:30:17.623Z,1.27
2022-08-21T08:32:44.305Z,1.05
2022-08-21T08:35:12.386Z,1.30
2022-08-21T08:37:41.307Z,1.33
2022-08-21T08:40:14.030Z,1.38
2022-08-21T08:42:40.844Z,1.52
2022-08-21T08:45:09.443Z,1.60
2022-08-21T08:47:39.432Z,1.40
2022-08-21T08:50:29.070Z,1.55
2022-08-21T08:53:01.485Z,1.20
2022-08-21T08:55:41.975Z,2.17
2022-08-21T08:58:13.511Z,1.70
2022-08-21T09:00:40.259Z,1.10
2022-08-21T09:03:06.760Z,2.17
2022-08-21T09:05:42.704Z,1.60
2022-08-21T09:08:44.291Z,2.05
2022-08-21T09:11:47.405Z,1.70
2022-08-21T09:14:35.956Z,1.90
2022-08-21T09:17:13.633Z,1.75
2022-08-21T09:19:51.854Z,1.98
2022-08-21T09:22:45.223Z,1.45
2022-08-21T09:25:19.435Z,1.88
2022-08-21T09:27:46.115Z,2.03
2022-08-21T09:30:13.550Z,1.88
2022-08-21T09:32:40.579Z,1.77
2022-08-21T09:35:10.320Z,1.50
2022-08-21T09:37:55.296Z,1.63
2022-08-21T09:40:33.940Z,1.63
2022-08-21T09:43:11.773Z,1.50
2022-08-21T09:45:40.232Z,1.30
2022-08-21T09:48:15.394Z,1.35
2022-08-21T09:50:43.058Z,1.25
2022-08-21T09:53:32.546Z,1.52
2022-08-21T09:56:24.394Z,1.40
2022-08-21T09:58:52.926Z,1.17
2022-08-21T10:01:24.661Z,1.20
2022-08-21T10:04:04.796Z,1.25
2022-08-21T10:06:31.822Z,1.20
2022-08-21T10:09:19.866Z,1.20
2022-08-21T10:12:20.626Z,1.45
2022-08-21T10:15:12.277Z,1.40
2022-08-21T10:17:46.377Z,1.02
2022-08-21T10:20:19.695Z,0.98
2022-08-21T10:23:08.831Z,0.95
2022-08-21T10:25:50.326Z,1.05
2022-08-21T10:28:54.226Z,0.93
2022-08-21T10:31:40.567Z,1.50
2022-08-21T10:34:17.300Z,1.00
2022-08-21T10:36:48.890Z,0.80
2022-08-21T10:40:08.005Z,1.00
2022-08-21T10:42:42.070Z,1.00
2022-08-21T10:45:46.406Z,1.15
2022-08-21T10:48:49.248Z,1.17
2022-08-21T10:51:44.291Z,1.08
2022-08-21T10:54:30.854Z,0.80
2022-08-21T10:57:05.699Z,0.80
2022-08-21T10:59:46.064Z,1.10
2022-08-21T11:02:26.439Z,1.30
2022-08-21T11:05:04.040Z,0.82
2022-08-21T11:19:32.611Z,1.13
2022-08-21T11:22:22.795Z,0.73
2022-08-21T11:25:05.235Z,0.65
2022-08-21T11:27:38.946Z,0.50
2022-08-21T11:30:07.164Z,0.52
2022-08-21T11:32:40.987Z,0.77
2022-08-21T11:35:34.200Z,0.60
2022-08-21T11:38:12.023Z,0.70
2022-08-21T11:40:47.343Z,0.82
2022-08-21T11:43:39.474Z,0.80
2022-08-21T11:46:13.124Z,0.98
2022-08-21T11:49:03.870Z,1.08
2022-08-21T11:51:44.160Z,0.90
2022-08-21T11:54:13.799Z,1.20
2022-08-21T11:56:55.502Z,1.00
2022-08-21T11:59:25.476Z,0.77
2022-08-21T12:01:52.902Z,1.10
2022-08-21T12:04:26.450Z,1.23
2022-08-21T12:06:53.227Z,0.73
2022-08-21T12:09:25.907Z,1.17
2022-08-21T12:12:08.157Z,1.00
2022-08-21T12:14:44.629Z,1.00
2022-08-21T12:17:24.965Z,0.82
2022-08-21T12:20:06.279Z,0.90
2022-08-21T12:22:41.938Z,0.82
2022-08-21T12:25:11.965Z,0.90
2022-08-21T12:27:48.072Z,0.90
2022-08-21T12:30:28.388Z,1.13
2022-08-21T12:32:59.299Z,1.00
2022-08-21T12:35:39.707Z,1.23
2022-08-21T12:38:14.094Z,0.90
2022-08-21T12:40:48.848Z,0.95
2022-08-21T12:43:21.917Z,0.77
2022-08-21T12:45:52.016Z,0.80
2022-08-21T12:48:26.708Z,1.27
2022-08-21T12:50:57.762Z,1.02
2022-08-21T12:53:29.232Z,1.30
2022-08-21T12:56:01.013Z,1.10
2022-08-21T12:58:28.413Z,1.35
2022-08-21T13:01:05.447Z,1.00
2022-08-21T13:03:33.010Z,1.00
2022-08-21T13:06:00.014Z,1.25
2022-08-21T13:08:28.029Z,1.00
2022-08-21T13:11:09.175Z,1.50
2022-08-21T13:13:46.904Z,1.38
2022-08-21T13:16:22.283Z,1.48
2022-08-21T13:19:05.777Z,1.23
2022-08-21T13:21:35.241Z,1.83
2022-08-21T13:24:42.496Z,1.38
2022-08-21T13:27:19.418Z,1.27
2022-08-21T13:29:50.339Z,1.55
2022-08-21T13:32:25.014Z,1.30
2022-08-21T13:34:53.851Z,1.20
2022-08-21T13:37:29.184Z,1.42
2022-08-21T13:39:56.263Z,1.13
2022-08-21T13:42:25.085Z,1.27
2022-08-21T13:44:53.526Z,1.35
2022-08-21T13:47:20.233Z,1.60
2022-08-21T13:49:48.476Z,1.40
2022-08-21T13:52:24.781Z,1.65
2022-08-21T13:54:58.046Z,1.70
2022-08-21T13:57:33.663Z,1.40
2022-08-21T14:00:21.217Z,1.30
2022-08-21T14:02:51.004Z,1.38
2022-08-21T14:05:27.636Z,1.45
2022-08-21T14:08:08.345Z,1.40
2022-08-21T14:10:38.630Z,1.65
2022-08-21T14:13:07.512Z,1.60
2022-08-21T14:15:36.157Z,1.35
2022-08-21T14:18:17.012Z,1.52
2022-08-21T14:20:43.713Z,1.40
2022-08-21T14:23:10.704Z,1.35
2022-08-21T14:25:45.041Z,1.90
2022-08-21T14:28:18.948Z,2.03
2022-08-21T14:30:46.465Z,1.20
2022-08-21T14:33:22.465Z,1.52
2022-08-21T14:35:49.018Z,1.60
2022-08-21T14:38:18.868Z,1.63
2022-08-21T14:40:49.131Z,1.58
2022-08-21T14:43:15.754Z,1.20
2022-08-21T14:45:44.663Z,1.83
2022-08-21T14:48:11.481Z,1.52
2022-08-21T14:50:38.527Z,1.40
2022-08-21T14:53:10.872Z,1.85
2022-08-21T14:55:56.948Z,1.70
2022-08-21T14:58:24.959Z,1.45
2022-08-21T15:00:53.245Z,1.45
2022-08-21T15:03:20.417Z,1.13
2022-08-21T15:05:47.008Z,1.23
2022-08-21T15:08:13.656Z,1.95
2022-08-21T15:10:52.604Z,1.73
2022-08-21T15:13:28.696Z,1.67
2022-08-21T15:15:55.430Z,1.77
2022-08-21T15:18:23.365Z,1.95
2022-08-21T15:20:50.124Z,1.45
2022-08-21T15:23:17.012Z,1.80
2022-08-21T15:25:45.917Z,1.30
2022-08-21T15:28:13.614Z,2.08
2022-08-21T15:30:41.857Z,1.60
2022-08-21T15:33:09.000Z,1.60
2022-08-21T15:35:41.065Z,1.75
2022-08-21T15:38:11.406Z,1.33
2022-08-21T15:40:47.815Z,1.42
2022-08-21T15:43:44.812Z,1.60
2022-08-21T15:46:13.555Z,2.10
2022-08-21T15:48:42.690Z,1.50
2022-08-21T15:51:11.519Z,1.80
2022-08-21T15:53:39.636Z,1.83
2022-08-21T15:56:07.827Z,1.48
2022-08-21T15:58:34.518Z,1.88
2022-08-21T16:01:01.735Z,1.73
2022-08-21T16:03:29.061Z,2.00
2022-08-21T16:05:57.889Z,1.45
2022-08-21T16:08:25.633Z,1.50
2022-08-21T16:10:53.138Z,1.52
2022-08-21T16:13:28.943Z,1.30
2022-08-21T16:15:55.979Z,1.58
2022-08-21T16:18:23.402Z,1.92
2022-08-21T16:20:50.460Z,1.60
2022-08-21T16:23:17.083Z,1.42
2022-08-21T16:25:44.442Z,1.55
2022-08-21T16:28:14.899Z,1.58
2022-08-21T16:30:42.115Z,1.80
2022-08-21T16:33:13.713Z,1.75
2022-08-21T16:35:40.409Z,1.65
2022-08-21T16:38:10.032Z,2.42
2022-08-21T16:40:36.877Z,2.00
2022-08-21T16:43:04.065Z,1.65
2022-08-21T16:45:33.176Z,1.52
2022-08-21T16:48:00.554Z,2.40
2022-08-21T16:50:27.197Z,1.90
2022-08-21T16:52:57.770Z,1.83
2022-08-21T16:55:24.571Z,1.63
2022-08-21T16:57:51.415Z,1.52
2022-08-21T17:00:18.043Z,1.30
2022-08-21T17:02:47.998Z,1.67
2022-08-21T17:05:15.041Z,2.15
2022-08-21T17:07:43.278Z,1.50
2022-08-21T17:10:12.470Z,1.75
2022-08-21T17:12:39.120Z,1.42
2022-08-21T17:15:09.726Z,1.45
2022-08-21T17:17:36.587Z,1.45
2022-08-21T17:20:04.553Z,1.52
2022-08-21T17:22:31.366Z,1.42
2022-08-21T17:24:58.014Z,1.77
2022-08-21T17:27:26.777Z,1.52
2022-08-21T17:29:54.900Z,1.67
2022-08-21T17:32:21.845Z,1.60
2022-08-21T17:34:48.516Z,1.25
2022-08-21T17:37:15.611Z,1.05
2022-08-21T17:39:42.365Z,1.40
2022-08-21T17:42:12.809Z,1.27
2022-08-21T17:44:45.030Z,1.90
2022-08-21T17:47:12.875Z,1.77
2022-08-21T17:49:39.811Z,1.45
2022-08-21T17:52:07.672Z,1.85
2022-08-21T17:54:36.465Z,1.10
2022-08-21T17:57:03.904Z,1.60
2022-08-21T17:59:30.532Z,1.50
2022-08-21T18:02:01.593Z,1.42
2022-08-21T18:04:29.960Z,1.42
2022-08-21T18:06:57.181Z,1.63
2022-08-21T18:09:28.131Z,1.40
2022-08-21T18:11:56.640Z,2.00
2022-08-21T18:14:33.053Z,1.70
2022-08-21T18:17:00.077Z,1.60
2022-08-21T18:19:27.002Z,2.28
2022-08-21T18:21:54.959Z,1.63
2022-08-21T18:24:23.349Z,2.35
2022-08-21T18:26:50.585Z,1.27
2022-08-21T18:29:19.739Z,1.45
2022-08-21T18:31:47.231Z,1.80
2022-08-21T18:34:22.015Z,1.67
2022-08-21T18:36:49.145Z,1.60
2022-08-21T18:39:35.398Z,1.60
2022-08-21T18:42:05.116Z,3.03
2022-08-21T18:44:32.199Z,1.55
2022-08-21T18:47:03.055Z,1.90
2022-08-21T18:49:29.650Z,1.73
2022-08-21T18:51:56.356Z,1.58
2022-08-21T18:54:24.230Z,1.50
2022-08-21T18:56:54.826Z,1.65
2022-08-21T18:59:28.421Z,2.08
2022-08-21T19:01:55.738Z,2.15
2022-08-21T19:04:42.860Z,1.40
2022-08-21T19:07:09.529Z,2.17
2022-08-21T19:09:36.071Z,1.85
2022-08-21T19:12:04.286Z,1.60
2022-08-21T19:14:31.060Z,2.03
2022-08-21T19:16:57.727Z,1.77
2022-08-21T19:19:24.357Z,1.90
2022-08-21T19:21:51.162Z,1.85
2022-08-21T19:24:18.287Z,1.95
2022-08-21T19:26:49.962Z,2.00
2022-08-21T19:29:34.979Z,1.95
2022-08-21T19:32:04.658Z,2.13
2022-08-21T19:34:31.501Z,2.63
2022-08-21T19:36:59.316Z,2.70
2022-08-21T19:39:26.619Z,3.38
2022-08-21T19:41:55.818Z,2.10
2022-08-21T19:44:25.776Z,2.63
2022-08-21T19:46:54.533Z,2.83
2022-08-21T19:52:17.100Z,1.90
2022-08-21T19:54:44.760Z,2.67
2022-08-21T19:57:12.607Z,2.65
2022-08-21T19:59:40.704Z,2.85
2022-08-21T20:02:09.431Z,3.35
2022-08-21T20:04:36.052Z,2.83
2022-08-21T20:07:04.072Z,3.33
2022-08-21T20:09:36.718Z,4.13
2022-08-21T20:12:10.078Z,3.00
2022-08-21T20:14:43.785Z,3.15
2022-08-21T20:17:11.485Z,3.35
2022-08-21T20:19:39.612Z,2.97
2022-08-21T20:22:07.074Z,3.10
2022-08-21T20:24:34.137Z,2.90
2022-08-21T20:27:01.859Z,2.97
2022-08-21T20:29:35.003Z,3.65
2022-08-21T20:32:04.997Z,3.20
2022-08-21T20:34:32.244Z,3.35
2022-08-21T20:37:00.858Z,3.67
2022-08-21T20:39:29.723Z,3.25
2022-08-21T20:41:57.078Z,2.78
2022-08-21T20:47:11.410Z,3.58
2022-08-21T20:49:43.143Z,3.50
2022-08-21T20:52:09.814Z,3.50
2022-08-21T20:54:45.920Z,3.95
2022-08-21T20:57:58.945Z,3.47
2022-08-21T21:00:28.088Z,4.30
2022-08-21T21:03:14.900Z,4.30
2022-08-21T21:05:59.005Z,4.30
2022-08-21T21:08:40.015Z,3.75
2022-08-21T21:11:14.374Z,4.47
2022-08-21T21:13:43.682Z,3.70
2022-08-21T21:16:34.095Z,3.67
2022-08-21T21:19:02.623Z,3.15
2022-08-21T21:21:33.474Z,3.63
2022-08-21T21:24:08.005Z,3.75
2022-08-21T21:26:46.156Z,3.58
2022-08-21T21:29:19.343Z,3.50
2022-08-21T21:31:47.680Z,3.28
2022-08-21T21:34:17.263Z,2.92
2022-08-21T21:36:58.900Z,3.67
2022-08-21T21:39:47.214Z,3.63
2022-08-21T21:45:32.823Z,3.67
2022-08-21T21:48:16.778Z,2.83
2022-08-21T21:51:02.132Z,3.30
2022-08-21T21:53:34.363Z,3.53
2022-08-21T21:56:07.584Z,3.25
2022-08-21T21:58:45.919Z,3.35
2022-08-21T22:01:45.051Z,2.70
2022-08-21T22:07:59.929Z,3.63
2022-08-21T22:10:43.143Z,3.70
2022-08-21T22:13:26.609Z,3.53
2022-08-21T22:15:54.517Z,3.30
2022-08-21T22:18:24.143Z,3.90
2022-08-21T22:21:03.792Z,3.60
2022-08-21T22:23:33.362Z,3.30
2022-08-21T22:26:08.262Z,3.22
2022-08-21T22:28:41.804Z,3.25
2022-08-21T22:31:19.492Z,3.03
2022-08-21T22:34:23.112Z,2.88
2022-08-21T22:37:11.439Z,2.63
2022-08-21T22:39:42.734Z,3.53
2022-08-21T22:42:24.744Z,3.13
2022-08-21T22:44:58.196Z,2.70
2022-08-21T22:47:41.625Z,3.17
2022-08-21T22:50:28.940Z,3.28
2022-08-21T22:53:01.947Z,3.00
2022-08-21T22:55:59.174Z,3.47
2022-08-21T22:58:29.678Z,3.63
2022-08-21T23:01:17.461Z,3.20
2022-08-21T23:03:45.805Z,2.30
2022-08-21T23:06:42.979Z,2.92
2022-08-21T23:09:20.299Z,2.47
2022-08-21T23:11:50.844Z,2.55
2022-08-21T23:14:18.182Z,2.45
2022-08-21T23:16:59.646Z,2.60
2022-08-21T23:19:53.101Z,2.55
2022-08-21T23:22:38.335Z,2.50
2022-08-21T23:25:17.517Z,2.63
2022-08-21T23:28:19.470Z,2.42
2022-08-21T23:30:50.674Z,2.38
2022-08-21T23:33:42.539Z,3.08
2022-08-21T23:36:43.748Z,2.63
2022-08-21T23:39:14.931Z,3.28
2022-08-21T23:42:10.098Z,2.05
2022-08-21T23:44:57.062Z,2.30
2022-08-21T23:47:45.566Z,3.20
2022-08-21T23:50:25.975Z,3.00
2022-08-21T23:53:09.049Z,3.00
2022-08-21T23:55:58.360Z,2.53
2022-08-21T23:58:59.081Z,2.85
